createdAt,value
2016-09-13T00:00:37.545Z,91.53
2016-09-13T00:01:37.514Z,91.43
2016-09-13T00:02:37.482Z,91.43
2016-09-13T00:03:37.452Z,91.91
2016-09-13T00:04:37.420Z,91.58
2016-09-13T00:05:37.388Z,91.58
2016-09-13T00:06:37.053Z,91.77
2016-09-13T00:07:37.327Z,91.58
2016-09-13T00:08:36.992Z,91.39
2016-09-13T00:09:36.972Z,91.43
2016-09-13T00:10:37.230Z,91.39
2016-09-13T00:11:37.196Z,90.57
2016-09-13T00:12:37.166Z,90.19
2016-09-13T00:13:37.136Z,89.8
2016-09-13T00:14:37.102Z,89.42
2016-09-13T00:15:37.071Z,89.04
2016-09-13T00:16:37.043Z,88.17
2016-09-13T00:17:36.722Z,87.31
2016-09-13T00:18:36.978Z,86.16
2016-09-13T00:19:36.945Z,85.82
2016-09-13T00:20:36.611Z,85.53
2016-09-13T00:21:36.882Z,83.23
2016-09-13T00:22:36.850Z,82.18
2016-09-13T00:23:36.821Z,80.97
2016-09-13T00:24:36.788Z,80.2
2016-09-13T00:25:36.758Z,80.2
2016-09-13T00:26:36.421Z,79.72
2016-09-13T00:27:36.390Z,79.86
2016-09-13T00:28:36.662Z,79.38
2016-09-13T00:29:36.329Z,79.38
2016-09-13T00:30:36.604Z,78.13
2016-09-13T00:31:36.571Z,77.75
2016-09-13T00:32:36.535Z,77.46
2016-09-13T00:33:36.509Z,77.56
2016-09-13T00:34:36.475Z,77.46
2016-09-13T00:35:36.139Z,77.65
2016-09-13T00:36:36.413Z,76.79
2016-09-13T00:37:36.081Z,76.98
2016-09-13T00:38:36.351Z,76.02
2016-09-13T00:39:36.317Z,76.31
2016-09-13T00:40:36.284Z,76.21
2016-09-13T00:41:36.256Z,75.92
2016-09-13T00:42:35.923Z,75.45
2016-09-13T00:43:36.195Z,75.63
2016-09-13T00:44:36.159Z,75.57
2016-09-13T00:45:36.133Z,75.54
2016-09-13T00:46:36.106Z,75.25
2016-09-13T00:47:36.071Z,75.48
2016-09-13T00:48:36.036Z,75.38
2016-09-13T00:49:35.705Z,75.96
2016-09-13T00:50:35.975Z,76.5
2016-09-13T00:51:35.945Z,77.26
2016-09-13T00:52:35.918Z,78.42
2016-09-13T00:53:35.886Z,78.7
2016-09-13T00:54:35.851Z,79.28
2016-09-13T00:55:35.819Z,79.57
2016-09-13T00:56:35.792Z,79.72
2016-09-13T00:57:35.764Z,80.68
2016-09-13T00:58:35.727Z,80.87
2016-09-13T00:59:35.696Z,81.07
2016-09-13T01:00:35.363Z,81.84
2016-09-13T01:01:35.635Z,81.64
2016-09-13T01:02:35.606Z,82.18
2016-09-13T01:03:35.572Z,82.85
2016-09-13T01:04:35.242Z,82.56
2016-09-13T01:05:35.507Z,82.94
2016-09-13T01:06:35.179Z,83.52
2016-09-13T01:07:35.449Z,83.52
2016-09-13T01:08:35.415Z,84.09
2016-09-13T01:09:35.388Z,84.38
2016-09-13T01:10:35.355Z,84.82
2016-09-13T01:11:35.323Z,85.01
2016-09-13T01:12:35.289Z,85.11
2016-09-13T01:13:35.261Z,84.82
2016-09-13T01:14:35.227Z,85.39
2016-09-13T01:15:35.196Z,85.68
2016-09-13T01:16:35.168Z,85.68
2016-09-13T01:17:35.145Z,85.88
2016-09-13T01:18:35.104Z,86.25
2016-09-13T01:19:35.075Z,86.45
2016-09-13T01:20:35.046Z,86.93
2016-09-13T01:21:34.707Z,87.27
2016-09-13T01:22:34.979Z,87.65
2016-09-13T01:23:34.944Z,87.65
2016-09-13T01:24:34.612Z,87.94
2016-09-13T01:25:34.880Z,88.03
2016-09-13T01:26:34.551Z,88.42
2016-09-13T01:27:34.817Z,88.42
2016-09-13T01:28:34.788Z,89.18
2016-09-13T01:29:34.758Z,89.09
2016-09-13T01:30:34.725Z,89.09
2016-09-13T01:31:34.693Z,89.37
2016-09-13T01:32:34.662Z,89.57
2016-09-13T01:33:34.632Z,89.86
2016-09-13T01:34:34.297Z,89.86
2016-09-13T01:35:34.566Z,89.76
2016-09-13T01:36:34.534Z,90.33
2016-09-13T01:37:34.200Z,89.76
2016-09-13T01:38:34.475Z,89.86
2016-09-13T01:39:34.151Z,90.29
2016-09-13T01:40:34.411Z,90.19
2016-09-13T01:41:34.072Z,90.58
2016-09-13T01:42:34.344Z,90.09
2016-09-13T01:43:34.013Z,90.67
2016-09-13T01:44:34.279Z,90.39
2016-09-13T01:45:34.249Z,91.25
2016-09-13T01:46:34.214Z,91.15
2016-09-13T01:47:33.881Z,91.15
2016-09-13T01:48:34.156Z,90.77
2016-09-13T01:49:34.121Z,91.15
2016-09-13T01:50:34.088Z,91.44
2016-09-13T01:51:34.055Z,91.05
2016-09-13T01:52:33.720Z,91.34
2016-09-13T01:53:33.990Z,91.53
2016-09-13T01:54:33.658Z,91.72
2016-09-13T01:55:33.931Z,91.53
2016-09-13T01:56:33.594Z,91.82
2016-09-13T01:57:33.860Z,91.72
2016-09-13T01:58:33.834Z,91.82
2016-09-13T01:59:33.499Z,91.63
2016-09-13T02:00:33.770Z,91.53
2016-09-13T02:01:33.737Z,91.25
2016-09-13T02:02:33.403Z,91.15
2016-09-13T02:03:33.671Z,91.58
2016-09-13T02:04:33.640Z,91.72
2016-09-13T02:05:33.608Z,91.34
2016-09-13T02:06:33.275Z,91.68
2016-09-13T02:07:33.542Z,91.58
2016-09-13T02:08:33.512Z,91.34
2016-09-13T02:09:33.478Z,91.3
2016-09-13T02:10:33.453Z,91.58
2016-09-13T02:11:33.114Z,91.39
2016-09-13T02:12:33.383Z,91.49
2016-09-13T02:13:33.356Z,91.49
2016-09-13T02:14:33.015Z,91.49
2016-09-13T02:15:33.284Z,91.58
2016-09-13T02:16:32.954Z,91.49
2016-09-13T02:17:32.918Z,91.87
2016-09-13T02:18:33.193Z,91.68
2016-09-13T02:19:32.854Z,91.68
2016-09-13T02:20:33.126Z,91.77
2016-09-13T02:21:33.093Z,91.68
2016-09-13T02:22:33.062Z,91.87
2016-09-13T02:23:33.036Z,91.68
2016-09-13T02:24:32.697Z,91.68
2016-09-13T02:25:32.964Z,92.06
2016-09-13T02:26:32.935Z,91.58
2016-09-13T02:27:32.915Z,92.06
2016-09-13T02:28:32.566Z,91.68
2016-09-13T02:29:32.531Z,91.87
2016-09-13T02:30:32.803Z,91.68
2016-09-13T02:31:32.470Z,92.06
2016-09-13T02:32:32.735Z,91.68
2016-09-13T02:33:32.406Z,91.58
2016-09-13T02:34:32.680Z,91.97
2016-09-13T02:35:32.639Z,91.49
2016-09-13T02:36:32.606Z,91.68
2016-09-13T02:37:32.579Z,92.06
2016-09-13T02:38:32.244Z,91.49
2016-09-13T02:39:32.514Z,91.77
2016-09-13T02:40:32.478Z,91.77
2016-09-13T02:41:32.147Z,92.63
2016-09-13T02:42:32.417Z,92.54
2016-09-13T02:43:32.077Z,92.35
2016-09-13T02:44:32.355Z,92.44
2016-09-13T02:45:32.317Z,92.35
2016-09-13T02:46:32.286Z,92.35
2016-09-13T02:47:32.253Z,92.16
2016-09-13T02:48:32.220Z,92.44
2016-09-13T02:49:32.185Z,92.44
2016-09-13T02:50:32.158Z,92.25
2016-09-13T02:51:32.123Z,92.54
2016-09-13T02:52:32.088Z,92.44
2016-09-13T02:53:32.062Z,92.44
2016-09-13T02:54:32.031Z,92.54
2016-09-13T02:55:31.997Z,92.59
2016-09-13T02:56:31.662Z,92.54
2016-09-13T02:57:31.931Z,92.16
2016-09-13T02:58:31.896Z,92.88
2016-09-13T02:59:31.864Z,92.97
2016-09-13T03:00:31.830Z,93.07
2016-09-13T03:01:31.799Z,93.55
2016-09-13T03:02:31.767Z,93.64
2016-09-13T03:03:31.735Z,93.07
2016-09-13T03:04:31.400Z,93.55
2016-09-13T03:05:31.672Z,93.84
2016-09-13T03:06:31.335Z,93.35
2016-09-13T03:07:31.603Z,93.74
2016-09-13T03:08:31.574Z,93.55
2016-09-13T03:09:31.545Z,93.93
2016-09-13T03:10:31.510Z,93.93
2016-09-13T03:11:31.474Z,94.31
2016-09-13T03:12:31.445Z,94.41
2016-09-13T03:13:31.412Z,94.02
2016-09-13T03:14:31.375Z,94.21
2016-09-13T03:15:31.349Z,94.5
2016-09-13T03:16:31.311Z,94.7
2016-09-13T03:17:31.278Z,94.7
2016-09-13T03:18:31.251Z,94.41
2016-09-13T03:19:31.213Z,94.6
2016-09-13T03:20:30.882Z,94.98
2016-09-13T03:21:30.854Z,95.17
2016-09-13T03:22:31.129Z,94.79
2016-09-13T03:23:31.085Z,94.89
2016-09-13T03:24:31.048Z,94.98
2016-09-13T03:25:31.024Z,94.98
2016-09-13T03:26:30.984Z,94.98
2016-09-13T03:27:30.949Z,94.89
2016-09-13T03:28:30.922Z,94.84
2016-09-13T03:29:30.888Z,94.84
2016-09-13T03:30:30.555Z,94.89
2016-09-13T03:31:30.820Z,94.74
2016-09-13T03:32:30.787Z,94.89
2016-09-13T03:33:30.469Z,94.84
2016-09-13T03:34:30.422Z,94.84
2016-09-13T03:35:30.690Z,94.89
2016-09-13T03:36:30.659Z,94.89
2016-09-13T03:37:30.627Z,94.84
2016-09-13T03:38:30.288Z,94.84
2016-09-13T03:39:30.258Z,95.03
2016-09-13T03:40:30.532Z,94.55
2016-09-13T03:41:30.494Z,95.12
2016-09-13T03:42:30.460Z,95.12
2016-09-13T03:43:30.428Z,95.32
2016-09-13T03:44:30.094Z,95.32
2016-09-13T03:45:30.361Z,94.93
2016-09-13T03:46:30.329Z,94.93
2016-09-13T03:47:30.304Z,95.32
2016-09-13T03:48:29.960Z,95.41
2016-09-13T03:49:29.928Z,95.22
2016-09-13T03:50:29.899Z,95.32
2016-09-13T03:51:29.864Z,94.93
2016-09-13T03:52:29.827Z,95.03
2016-09-13T03:53:30.103Z,95.61
2016-09-13T03:54:30.070Z,95.51
2016-09-13T03:55:30.046Z,95.22
2016-09-13T03:56:30.000Z,95.7
2016-09-13T03:57:29.969Z,95.32
2016-09-13T03:58:29.936Z,95.32
2016-09-13T03:59:29.905Z,95.7
2016-09-13T04:00:29.870Z,95.61
2016-09-13T04:01:29.535Z,95.41
2016-09-13T04:02:29.505Z,95.61
2016-09-13T04:03:29.470Z,95.7
2016-09-13T04:04:29.740Z,95.41
2016-09-13T04:05:29.706Z,95.7
2016-09-13T04:06:29.371Z,95.12
2016-09-13T04:07:29.337Z,95.12
2016-09-13T04:08:29.302Z,95.61
2016-09-13T04:09:29.574Z,95.12
2016-09-13T04:10:29.546Z,95.32
2016-09-13T04:11:29.510Z,95.32
2016-09-13T04:12:29.177Z,95.51
2016-09-13T04:13:29.444Z,95.03
2016-09-13T04:14:29.409Z,95.12
2016-09-13T04:15:29.387Z,95.79
2016-09-13T04:16:29.041Z,95.51
2016-09-13T04:17:29.318Z,95.79
2016-09-13T04:18:29.276Z,95.7
2016-09-13T04:19:29.246Z,95.61
2016-09-13T04:20:29.211Z,95.7
2016-09-13T04:21:29.182Z,96.08
2016-09-13T04:22:29.145Z,96.18
2016-09-13T04:23:28.810Z,95.98
2016-09-13T04:24:29.080Z,95.89
2016-09-13T04:25:28.744Z,95.89
2016-09-13T04:26:29.015Z,96.18
2016-09-13T04:27:28.985Z,96.27
2016-09-13T04:28:28.948Z,95.89
2016-09-13T04:29:28.918Z,96.08
2016-09-13T04:30:28.884Z,95.89
2016-09-13T04:31:28.850Z,96.66
2016-09-13T04:32:28.813Z,96.47
2016-09-13T04:33:28.781Z,96.56
2016-09-13T04:34:28.761Z,96.47
2016-09-13T04:35:28.716Z,96.37
2016-09-13T04:36:28.684Z,96.27
2016-09-13T04:37:28.648Z,96.47
2016-09-13T04:38:28.317Z,96.37
2016-09-13T04:39:28.584Z,95.98
2016-09-13T04:40:28.550Z,96.27
2016-09-13T04:41:28.215Z,96.84
2016-09-13T04:42:28.483Z,96.37
2016-09-13T04:43:28.150Z,96.66
2016-09-13T04:44:28.112Z,96.61
2016-09-13T04:45:28.387Z,96.42
2016-09-13T04:46:28.352Z,96.51
2016-09-13T04:47:28.017Z,96.56
2016-09-13T04:48:28.292Z,96.56
2016-09-13T04:49:28.251Z,96.22
2016-09-13T04:50:28.234Z,96.22
2016-09-13T04:51:28.182Z,96.56
2016-09-13T04:52:27.855Z,97.04
2016-09-13T04:53:28.120Z,97.04
2016-09-13T04:54:28.088Z,96.47
2016-09-13T04:55:28.053Z,96.47
2016-09-13T04:56:27.716Z,96.75
2016-09-13T04:57:27.988Z,96.47
2016-09-13T04:58:27.951Z,96.27
2016-09-13T04:59:27.919Z,96.47
2016-09-13T05:00:27.885Z,96.27
2016-09-13T05:01:27.854Z,96.18
2016-09-13T05:02:27.817Z,96.66
2016-09-13T05:03:27.482Z,96.47
2016-09-13T05:04:27.756Z,96.18
2016-09-13T05:05:27.728Z,96.47
2016-09-13T05:06:27.685Z,96.56
2016-09-13T05:07:27.657Z,96.56
2016-09-13T05:08:27.615Z,96.56
2016-09-13T05:09:27.585Z,96.56
2016-09-13T05:10:27.249Z,96.66
2016-09-13T05:11:27.519Z,96.56
2016-09-13T05:12:27.486Z,96.56
2016-09-13T05:13:27.453Z,96.47
2016-09-13T05:14:27.422Z,96.56
2016-09-13T05:15:27.085Z,96.84
2016-09-13T05:16:27.356Z,96.18
2016-09-13T05:17:27.323Z,96.66
2016-09-13T05:18:26.990Z,96.47
2016-09-13T05:19:27.259Z,96.37
2016-09-13T05:20:27.226Z,96.56
2016-09-13T05:21:27.190Z,95.79
2016-09-13T05:22:26.856Z,96.08
2016-09-13T05:23:27.127Z,96.18
2016-09-13T05:24:27.089Z,95.98
2016-09-13T05:25:27.064Z,95.56
2016-09-13T05:26:26.724Z,95.07
2016-09-13T05:27:26.995Z,95.17
2016-09-13T05:28:26.656Z,95.56
2016-09-13T05:29:26.925Z,94.89
2016-09-13T05:30:26.898Z,94.36
2016-09-13T05:31:26.557Z,93.5
2016-09-13T05:32:26.529Z,93.07
2016-09-13T05:33:26.493Z,91.72
2016-09-13T05:34:26.766Z,91
2016-09-13T05:35:26.430Z,89.86
2016-09-13T05:36:26.699Z,89.23
2016-09-13T05:37:26.670Z,88.27
2016-09-13T05:38:26.635Z,86.97
2016-09-13T05:39:26.611Z,85.82
2016-09-13T05:40:26.573Z,85.19
2016-09-13T05:41:26.542Z,83.94
2016-09-13T05:42:26.506Z,82.54
2016-09-13T05:43:26.476Z,81.4
2016-09-13T05:44:26.444Z,80.96
2016-09-13T05:45:26.413Z,80.28
2016-09-13T05:46:26.077Z,79.27
2016-09-13T05:47:26.350Z,78.5
2016-09-13T05:48:26.324Z,77.25
2016-09-13T05:49:26.290Z,76.61
2016-09-13T05:50:26.257Z,76.42
2016-09-13T05:51:26.228Z,75.46
2016-09-13T05:52:26.196Z,74.92
2016-09-13T05:53:26.165Z,74.44
2016-09-13T05:54:26.135Z,73.38
2016-09-13T05:55:26.105Z,72.9
2016-09-13T05:56:26.081Z,71.88
2016-09-13T05:57:25.744Z,71.4
2016-09-13T05:58:25.718Z,70.76
2016-09-13T05:59:25.985Z,69.93
2016-09-13T06:00:25.959Z,68.77
2016-09-13T06:01:25.629Z,67.65
2016-09-13T06:02:25.895Z,67.07
2016-09-13T06:03:25.867Z,66.43
2016-09-13T06:04:25.839Z,65.27
2016-09-13T06:05:25.810Z,64.34
2016-09-13T06:06:25.781Z,63.4
2016-09-13T06:07:25.451Z,61.86
2016-09-13T06:08:25.724Z,61.41
2016-09-13T06:09:25.698Z,60.96
2016-09-13T06:10:25.670Z,59.7
2016-09-13T06:11:25.339Z,58.86
2016-09-13T06:12:25.616Z,58.67
2016-09-13T06:13:25.583Z,58.02
2016-09-13T06:14:25.563Z,57.15
2016-09-13T06:15:25.228Z,55.73
2016-09-13T06:16:25.504Z,55.36
2016-09-13T06:17:25.476Z,53.94
2016-09-13T06:18:25.450Z,52.58
2016-09-13T06:19:25.422Z,51.54
2016-09-13T06:20:25.402Z,51.45
2016-09-13T06:21:25.370Z,50.79
2016-09-13T06:22:25.348Z,50.12
2016-09-13T06:23:25.322Z,49.27
2016-09-13T06:24:25.290Z,49.07
2016-09-13T06:25:24.961Z,49.07
2016-09-13T06:26:25.240Z,48.97
2016-09-13T06:27:24.912Z,48.59
2016-09-13T06:28:25.191Z,49.07
2016-09-13T06:29:25.167Z,48.1
2016-09-13T06:30:25.137Z,47.45
2016-09-13T06:31:25.111Z,46.38
2016-09-13T06:32:25.087Z,45.53
2016-09-13T06:33:25.064Z,45.17
2016-09-13T06:34:25.036Z,44.7
2016-09-13T06:35:25.012Z,43.63
2016-09-13T06:36:24.997Z,42
2016-09-13T06:37:24.668Z,41.26
2016-09-13T06:38:24.951Z,40.01
2016-09-13T06:39:24.915Z,39.84
2016-09-13T06:40:24.891Z,38.87
2016-09-13T06:41:24.869Z,38.69
2016-09-13T06:42:24.540Z,38.02
2016-09-13T06:43:24.819Z,37.54
2016-09-13T06:44:24.796Z,37.07
2016-09-13T06:45:24.771Z,36.58
2016-09-13T06:46:24.446Z,36.49
2016-09-13T06:47:24.724Z,36.78
2016-09-13T06:48:24.701Z,36.39
2016-09-13T06:49:24.378Z,36.1
2016-09-13T06:50:24.351Z,35.9
2016-09-13T06:51:24.630Z,35.53
2016-09-13T06:52:24.305Z,35.33
2016-09-13T06:53:24.288Z,34.65
2016-09-13T06:54:24.563Z,33.98
2016-09-13T06:55:24.244Z,33.61
2016-09-13T06:56:24.520Z,33.04
2016-09-13T06:57:24.496Z,32.27
2016-09-13T06:58:24.475Z,31.9
2016-09-13T06:59:24.452Z,31.6
2016-09-13T07:00:24.129Z,30.83
2016-09-13T07:01:24.405Z,30.16
2016-09-13T07:02:24.083Z,29.79
2016-09-13T07:03:24.364Z,29.6
2016-09-13T07:04:24.346Z,28.92
2016-09-13T07:05:24.022Z,28.54
2016-09-13T07:06:24.001Z,27.87
2016-09-13T07:07:23.978Z,27.59
2016-09-13T07:08:23.954Z,27.29
2016-09-13T07:09:24.241Z,27.11
2016-09-13T07:10:24.216Z,26.82
2016-09-13T07:11:23.897Z,25.95
2016-09-13T07:12:24.177Z,25.77
2016-09-13T07:13:24.157Z,25.28
2016-09-13T07:14:24.135Z,24.9
2016-09-13T07:15:24.115Z,24.62
2016-09-13T07:16:24.095Z,24.02
2016-09-13T07:17:24.078Z,24.33
2016-09-13T07:18:23.748Z,23.64
2016-09-13T07:19:24.033Z,22.95
2016-09-13T07:20:24.014Z,23.46
2016-09-13T07:21:23.994Z,22.77
2016-09-13T07:22:23.969Z,22.38
2016-09-13T07:23:23.954Z,22.28
2016-09-13T07:24:23.630Z,21.9
2016-09-13T07:25:23.619Z,21.42
2016-09-13T07:26:23.593Z,21.61
2016-09-13T07:27:23.877Z,21.61
2016-09-13T07:28:23.553Z,21.13
2016-09-13T07:29:23.833Z,21.03
2016-09-13T07:30:23.512Z,21.24
2016-09-13T07:31:23.795Z,20.15
2016-09-13T07:32:23.472Z,19.77
2016-09-13T07:33:23.755Z,19.48
2016-09-13T07:34:23.737Z,19.38
2016-09-13T07:35:23.418Z,19.49
2016-09-13T07:36:23.702Z,19.3
2016-09-13T07:37:23.684Z,19.1
2016-09-13T07:38:23.663Z,19.01
2016-09-13T07:39:23.640Z,18.82
2016-09-13T07:40:23.325Z,18.23
2016-09-13T07:41:23.608Z,18.04
2016-09-13T07:42:23.590Z,17.74
2016-09-13T07:43:23.570Z,17.25
2016-09-13T07:44:23.560Z,17.06
2016-09-13T07:45:23.531Z,17.16
2016-09-13T07:46:23.515Z,16.38
2016-09-13T07:47:23.193Z,16.08
2016-09-13T07:48:23.476Z,15.39
2016-09-13T07:49:23.464Z,15.39
2016-09-13T07:50:23.440Z,15.09
2016-09-13T07:51:23.420Z,15.58
2016-09-13T07:52:23.404Z,16.06
2016-09-13T07:53:23.387Z,16.06
2016-09-13T07:54:23.367Z,16.05
2016-09-13T07:55:23.049Z,17.02
2016-09-13T07:56:23.332Z,17.31
2016-09-13T07:57:23.319Z,17.11
2016-09-13T07:58:23.297Z,17.31
2016-09-13T07:59:23.276Z,17.02
2016-09-13T08:00:23.263Z,16.64
2016-09-13T08:01:23.244Z,16.25
2016-09-13T08:02:23.224Z,16.55
2016-09-13T08:03:22.900Z,16.74
2016-09-13T08:04:22.888Z,17.03
2016-09-13T08:05:23.166Z,17.12
2016-09-13T08:06:23.155Z,17.22
2016-09-13T08:07:23.129Z,16.64
2016-09-13T08:08:23.114Z,16.06
2016-09-13T08:09:23.098Z,15.36
2016-09-13T08:10:23.077Z,15.48
2016-09-13T08:11:23.062Z,15.37
2016-09-13T08:12:22.736Z,15.57
2016-09-13T08:13:23.039Z,15.57
2016-09-13T08:14:22.700Z,15.67
2016-09-13T08:15:22.982Z,15.39
2016-09-13T08:16:22.965Z,14.7
2016-09-13T08:17:22.947Z,15.11
2016-09-13T08:18:22.627Z,15.09
2016-09-13T08:19:22.609Z,15.09
2016-09-13T08:20:22.892Z,15.58
2016-09-13T08:21:22.877Z,16.65
2016-09-13T08:22:22.858Z,17.82
2016-09-13T08:23:22.839Z,18.2
2016-09-13T08:24:22.819Z,18.59
2016-09-13T08:25:22.800Z,18.48
2016-09-13T08:26:22.788Z,17.89
2016-09-13T08:27:22.765Z,17.91
2016-09-13T08:28:22.743Z,18.21
2016-09-13T08:29:22.730Z,18.3
2016-09-13T08:30:22.715Z,19.17
2016-09-13T08:31:22.692Z,18.97
2016-09-13T08:32:22.369Z,18.68
2016-09-13T08:33:22.658Z,17.51
2016-09-13T08:34:22.634Z,17.33
2016-09-13T08:35:22.619Z,16.75
2016-09-13T08:36:22.296Z,16.08
2016-09-13T08:37:22.580Z,15.2
2016-09-13T08:38:22.563Z,14.71
2016-09-13T08:39:22.548Z,14.43
2016-09-13T08:40:22.527Z,14.04
2016-09-13T08:41:22.204Z,13.94
2016-09-13T08:42:22.495Z,13.94
2016-09-13T08:43:22.476Z,14.24
2016-09-13T08:44:22.153Z,13.84
2016-09-13T08:45:22.444Z,13.65
2016-09-13T08:46:22.421Z,13.26
2016-09-13T08:47:22.403Z,12.87
2016-09-13T08:48:22.385Z,12.98
2016-09-13T08:49:22.367Z,12.18
2016-09-13T08:50:22.359Z,12.08
2016-09-13T08:51:22.338Z,12.78
2016-09-13T08:52:22.333Z,12.77
2016-09-13T08:53:22.303Z,12.87
2016-09-13T08:54:22.281Z,12.57
2016-09-13T08:55:21.965Z,12.27
2016-09-13T08:56:22.248Z,12.77
2016-09-13T08:57:21.932Z,12.97
2016-09-13T08:58:22.219Z,12.87
2016-09-13T08:59:22.202Z,12.97
2016-09-13T09:00:22.187Z,12.97
2016-09-13T09:01:22.168Z,12.87
2016-09-13T09:02:22.156Z,12.57
2016-09-13T09:03:22.128Z,12.96
2016-09-13T09:04:21.812Z,13.46
2016-09-13T09:05:22.098Z,13.06
2016-09-13T09:06:22.080Z,13.36
2016-09-13T09:07:21.765Z,13.06
2016-09-13T09:08:21.747Z,13.16
2016-09-13T09:09:22.033Z,13.16
2016-09-13T09:10:22.015Z,13.07
2016-09-13T09:11:21.998Z,13.07
2016-09-13T09:12:21.986Z,12.68
2016-09-13T09:13:21.970Z,12.78
2016-09-13T09:14:21.955Z,12.08
2016-09-13T09:15:21.941Z,12.29
2016-09-13T09:16:21.915Z,11.68
2016-09-13T09:17:21.905Z,12.08
2016-09-13T09:18:21.887Z,11.89
2016-09-13T09:19:21.872Z,12.48
2016-09-13T09:20:21.858Z,12.27
2016-09-13T09:21:21.839Z,12.57
2016-09-13T09:22:21.519Z,12.77
2016-09-13T09:23:21.806Z,12.57
2016-09-13T09:24:21.790Z,13.07
2016-09-13T09:25:21.470Z,12.76
2016-09-13T09:26:21.758Z,12.96
2016-09-13T09:27:21.439Z,13.07
2016-09-13T09:28:21.727Z,13.07
2016-09-13T09:29:21.710Z,13.26
2016-09-13T09:30:21.390Z,13.55
2016-09-13T09:31:21.676Z,13.05
2016-09-13T09:32:21.357Z,13.15
2016-09-13T09:33:21.647Z,12.95
2016-09-13T09:34:21.629Z,13.45
2016-09-13T09:35:21.313Z,12.86
2016-09-13T09:36:21.595Z,12.47
2016-09-13T09:37:21.281Z,12.58
2016-09-13T09:38:21.264Z,12.79
2016-09-13T09:39:21.549Z,12.57
2016-09-13T09:40:21.535Z,12.78
2016-09-13T09:41:21.517Z,12.88
2016-09-13T09:42:21.510Z,12.88
2016-09-13T09:43:21.485Z,12.49
2016-09-13T09:44:21.468Z,12.19
2016-09-13T09:45:21.454Z,12.09
2016-09-13T09:46:21.438Z,12.09
2016-09-13T09:47:21.426Z,11.99
2016-09-13T09:48:21.105Z,11.69
2016-09-13T09:49:21.393Z,11.88
2016-09-13T09:50:21.076Z,11.69
2016-09-13T09:51:21.364Z,12.29
2016-09-13T09:52:21.047Z,12.87
2016-09-13T09:53:21.338Z,12.87
2016-09-13T09:54:21.021Z,12.47
2016-09-13T09:55:21.003Z,13.46
2016-09-13T09:56:21.293Z,13.86
2016-09-13T09:57:21.280Z,14.64
2016-09-13T09:58:21.276Z,15.91
2016-09-13T09:59:20.951Z,16.18
2016-09-13T10:00:21.232Z,16.67
2016-09-13T10:01:21.216Z,16.77
2016-09-13T10:02:21.200Z,16.17
2016-09-13T10:03:21.199Z,16.08
2016-09-13T10:04:21.167Z,15.5
2016-09-13T10:05:21.153Z,14.92
2016-09-13T10:06:20.838Z,15.12
2016-09-13T10:07:20.827Z,14.73
2016-09-13T10:08:21.109Z,14.23
2016-09-13T10:09:21.091Z,14.53
2016-09-13T10:10:20.781Z,14.65
2016-09-13T10:11:20.762Z,14.53
2016-09-13T10:12:21.050Z,14.63
2016-09-13T10:13:21.031Z,14.14
2016-09-13T10:14:21.021Z,14.15
2016-09-13T10:15:21.023Z,14.04
2016-09-13T10:16:20.685Z,14.14
2016-09-13T10:17:20.974Z,14.04
2016-09-13T10:18:20.658Z,13.95
2016-09-13T10:19:20.640Z,13.45
2016-09-13T10:20:20.930Z,13.95
2016-09-13T10:21:20.612Z,13.85
2016-09-13T10:22:20.902Z,14.15
2016-09-13T10:23:20.886Z,14.04
2016-09-13T10:24:20.867Z,14.54
2016-09-13T10:25:20.856Z,14.54
2016-09-13T10:26:20.837Z,14.54
2016-09-13T10:27:20.823Z,14.53
2016-09-13T10:28:20.506Z,15.01
2016-09-13T10:29:20.793Z,14.92
2016-09-13T10:30:20.779Z,14.52
2016-09-13T10:31:20.462Z,14.32
2016-09-13T10:32:20.756Z,14.53
2016-09-13T10:33:20.731Z,14.63
2016-09-13T10:34:20.718Z,15.03
2016-09-13T10:35:20.699Z,15.7
2016-09-13T10:36:20.385Z,16
2016-09-13T10:37:20.672Z,16
2016-09-13T10:38:20.436Z,17.37
2016-09-13T10:39:20.338Z,18.14
2016-09-13T10:40:20.321Z,18.43
2016-09-13T10:41:20.611Z,17.83
2016-09-13T10:42:20.591Z,17.16
2016-09-13T10:43:20.578Z,16.67
2016-09-13T10:44:20.559Z,15.79
2016-09-13T10:45:20.244Z,16.49
2016-09-13T10:46:20.531Z,17.86
2016-09-13T10:47:20.509Z,18.04
2016-09-13T10:48:20.505Z,18.13
2016-09-13T10:49:20.177Z,17.25
2016-09-13T10:50:20.462Z,17.35
2016-09-13T10:51:20.440Z,17.55
2016-09-13T10:52:20.425Z,17.46
2016-09-13T10:53:20.408Z,17.56
2016-09-13T10:54:20.088Z,18.04
2016-09-13T10:55:20.075Z,18.82
2016-09-13T10:56:20.055Z,19.31
2016-09-13T10:57:20.345Z,20
2016-09-13T10:58:20.318Z,20.57
2016-09-13T10:59:20.354Z,20.94
2016-09-13T11:00:20.287Z,20.73
2016-09-13T11:01:20.269Z,21.13
2016-09-13T11:02:20.263Z,21.34
2016-09-13T11:03:20.233Z,21.34
2016-09-13T11:04:20.213Z,21.53
2016-09-13T11:05:20.199Z,21.61
2016-09-13T11:06:20.179Z,21.51
2016-09-13T11:07:20.161Z,21.61
2016-09-13T11:08:20.143Z,21.33
2016-09-13T11:09:20.126Z,21.34
2016-09-13T11:10:20.109Z,20.84
2016-09-13T11:11:20.089Z,20.95
2016-09-13T11:12:20.071Z,20.95
2016-09-13T11:13:19.750Z,21.93
2016-09-13T11:14:20.032Z,22.89
2016-09-13T11:15:20.018Z,24.53
2016-09-13T11:16:19.996Z,25.6
2016-09-13T11:17:19.675Z,25.96
2016-09-13T11:18:19.957Z,26.53
2016-09-13T11:19:19.936Z,26.53
2016-09-13T11:20:19.921Z,26.42
2016-09-13T11:21:19.897Z,26.91
2016-09-13T11:22:19.877Z,26.91
2016-09-13T11:23:19.554Z,27.5
2016-09-13T11:24:19.836Z,27.6
2016-09-13T11:25:19.817Z,28.77
2016-09-13T11:26:19.802Z,29.16
2016-09-13T11:27:19.777Z,29.44
2016-09-13T11:28:19.458Z,30.78
2016-09-13T11:29:19.737Z,31.24
2016-09-13T11:30:19.717Z,31.62
2016-09-13T11:31:19.693Z,32.3
2016-09-13T11:32:19.673Z,32.78
2016-09-13T11:33:19.651Z,33.56
2016-09-13T11:34:19.331Z,34.42
2016-09-13T11:35:19.613Z,35.38
2016-09-13T11:36:19.284Z,35.66
2016-09-13T11:37:19.263Z,36.23
2016-09-13T11:38:19.543Z,37.19
2016-09-13T11:39:19.524Z,38.14
2016-09-13T11:40:19.497Z,39
2016-09-13T11:41:19.476Z,39.57
2016-09-13T11:42:19.155Z,40.45
2016-09-13T11:43:19.131Z,41.01
2016-09-13T11:44:19.415Z,41.38
2016-09-13T11:45:19.082Z,41.77
2016-09-13T11:46:19.067Z,41.96
2016-09-13T11:47:19.340Z,41.86
2016-09-13T11:48:19.013Z,42.65
2016-09-13T11:49:19.294Z,43.89
2016-09-13T11:50:19.270Z,44.35
2016-09-13T11:51:19.248Z,44.55
2016-09-13T11:52:19.219Z,46.08
2016-09-13T11:53:19.202Z,45.79
2016-09-13T11:54:19.175Z,46.25
2016-09-13T11:55:18.848Z,46.35
2016-09-13T11:56:18.840Z,46.25
2016-09-13T11:57:19.103Z,46.25
2016-09-13T11:58:18.774Z,46.45
2016-09-13T11:59:19.059Z,46.18
2016-09-13T12:00:19.027Z,46.55
2016-09-13T12:01:19.004Z,46.94
2016-09-13T12:02:18.672Z,47.2
2016-09-13T12:03:18.956Z,47.49
2016-09-13T12:04:18.931Z,48.18
2016-09-13T12:05:18.906Z,48.85
2016-09-13T12:06:18.576Z,48.95
2016-09-13T12:07:18.852Z,49.34
2016-09-13T12:08:18.525Z,49.54
2016-09-13T12:09:18.503Z,49.41
2016-09-13T12:10:18.780Z,49.71
2016-09-13T12:11:18.752Z,50.48
2016-09-13T12:12:18.724Z,50.09
2016-09-13T12:13:18.703Z,49.51
2016-09-13T12:14:18.369Z,49.71
2016-09-13T12:15:18.651Z,50.19
2016-09-13T12:16:18.626Z,50.09
2016-09-13T12:17:18.304Z,50.48
2016-09-13T12:18:18.577Z,50.77
2016-09-13T12:19:18.551Z,50.96
2016-09-13T12:20:18.222Z,51.23
2016-09-13T12:21:18.499Z,51.81
2016-09-13T12:22:18.472Z,52.11
2016-09-13T12:23:18.450Z,51.72
2016-09-13T12:24:18.424Z,51.62
2016-09-13T12:25:18.398Z,51.81
2016-09-13T12:26:18.070Z,51.62
2016-09-13T12:27:18.345Z,52.01
2016-09-13T12:28:18.323Z,51.79
2016-09-13T12:29:18.290Z,52.01
2016-09-13T12:30:18.267Z,52.11
2016-09-13T12:31:18.241Z,52.2
2016-09-13T12:32:18.219Z,52.08
2016-09-13T12:33:18.192Z,52.11
2016-09-13T12:34:17.863Z,52.47
2016-09-13T12:35:18.137Z,52.88
2016-09-13T12:36:18.124Z,52.59
2016-09-13T12:37:18.088Z,52.4
2016-09-13T12:38:17.761Z,52.88
2016-09-13T12:39:18.050Z,52.37
2016-09-13T12:40:17.714Z,52.59
2016-09-13T12:41:17.989Z,52.76
2016-09-13T12:42:17.660Z,53.05
2016-09-13T12:43:17.932Z,52.66
2016-09-13T12:44:17.904Z,52.56
2016-09-13T12:45:17.583Z,53.44
2016-09-13T12:46:17.566Z,53.92
2016-09-13T12:47:17.845Z,53.63
2016-09-13T12:48:17.802Z,54.31
2016-09-13T12:49:17.783Z,54.31
2016-09-13T12:50:17.451Z,54.41
2016-09-13T12:51:17.425Z,54.41
2016-09-13T12:52:17.399Z,54.02
2016-09-13T12:53:17.688Z,53.83
2016-09-13T12:54:17.655Z,53.53